sensor_id;sensor_type;location;lat;lon;timestamp;P1;durP1;ratioP1;P2;durP2;ratioP2
5303;SDS011;2674;49.722;10.892;2023-06-10T00:01:57;6.53;;;5.87;;
5303;SDS011;2674;49.722;10.892;2023-06-10T00:04:23;8.80;;;6.57;;
5303;SDS011;2674;49.722;10.892;2023-06-10T00:06:49;7.67;;;6.87;;
5303;SDS011;2674;49.722;10.892;2023-06-10T00:09:15;10.23;;;6.40;;
5303;SDS011;2674;49.722;10.892;2023-06-10T00:11:41;7.33;;;6.30;;
5303;SDS011;2674;49.722;10.892;2023-06-10T00:14:08;7.83;;;6.33;;
5303;SDS011;2674;49.722;10.892;2023-06-10T00:16:34;6.80;;;6.10;;
5303;SDS011;2674;49.722;10.892;2023-06-10T00:19:00;6.80;;;6.13;;
5303;SDS011;2674;49.722;10.892;2023-06-10T00:21:30;8.30;;;6.50;;
5303;SDS011;2674;49.722;10.892;2023-06-10T00:24:08;7.73;;;7.03;;
5303;SDS011;2674;49.722;10.892;2023-06-10T00:26:38;14.20;;;9.83;;
5303;SDS011;2674;49.722;10.892;2023-06-10T00:29:04;8.60;;;7.50;;
5303;SDS011;2674;49.722;10.892;2023-06-10T00:31:30;9.07;;;8.10;;
5303;SDS011;2674;49.722;10.892;2023-06-10T00:33:56;11.70;;;8.53;;
5303;SDS011;2674;49.722;10.892;2023-06-10T00:36:23;8.53;;;7.20;;
5303;SDS011;2674;49.722;10.892;2023-06-10T00:38:49;8.80;;;7.90;;
5303;SDS011;2674;49.722;10.892;2023-06-10T00:41:15;7.57;;;6.80;;
5303;SDS011;2674;49.722;10.892;2023-06-10T00:43:41;8.80;;;6.97;;
5303;SDS011;2674;49.722;10.892;2023-06-10T00:46:07;8.40;;;7.40;;
5303;SDS011;2674;49.722;10.892;2023-06-10T00:48:33;8.13;;;7.20;;
5303;SDS011;2674;49.722;10.892;2023-06-10T00:50:59;8.33;;;7.33;;
5303;SDS011;2674;49.722;10.892;2023-06-10T00:53:25;8.83;;;7.90;;
5303;SDS011;2674;49.722;10.892;2023-06-10T00:55:52;9.17;;;7.33;;
5303;SDS011;2674;49.722;10.892;2023-06-10T00:58:18;7.67;;;6.93;;
5303;SDS011;2674;49.722;10.892;2023-06-10T01:00:44;8.70;;;7.80;;
5303;SDS011;2674;49.722;10.892;2023-06-10T01:03:11;8.73;;;7.50;;
5303;SDS011;2674;49.722;10.892;2023-06-10T01:05:38;10.37;;;7.90;;
5303;SDS011;2674;49.722;10.892;2023-06-10T01:08:12;8.23;;;7.40;;
5303;SDS011;2674;49.722;10.892;2023-06-10T01:13:18;8.60;;;6.70;;
5303;SDS011;2674;49.722;10.892;2023-06-10T01:15:48;9.30;;;7.83;;
5303;SDS011;2674;49.722;10.892;2023-06-10T01:18:16;6.60;;;6.00;;
5303;SDS011;2674;49.722;10.892;2023-06-10T01:20:42;8.57;;;6.90;;
5303;SDS011;2674;49.722;10.892;2023-06-10T01:23:10;7.83;;;7.03;;
5303;SDS011;2674;49.722;10.892;2023-06-10T01:25:40;9.80;;;7.40;;
5303;SDS011;2674;49.722;10.892;2023-06-10T01:30:38;8.07;;;7.27;;
5303;SDS011;2674;49.722;10.892;2023-06-10T01:33:27;10.33;;;8.47;;
5303;SDS011;2674;49.722;10.892;2023-06-10T01:35:57;9.30;;;8.20;;
5303;SDS011;2674;49.722;10.892;2023-06-10T01:38:27;8.50;;;7.53;;
5303;SDS011;2674;49.722;10.892;2023-06-10T01:40:58;10.43;;;7.60;;
5303;SDS011;2674;49.722;10.892;2023-06-10T01:43:25;7.50;;;6.70;;
5303;SDS011;2674;49.722;10.892;2023-06-10T01:45:51;8.40;;;7.60;;
5303;SDS011;2674;49.722;10.892;2023-06-10T01:48:17;7.83;;;7.03;;
5303;SDS011;2674;49.722;10.892;2023-06-10T01:50:43;8.00;;;7.20;;
5303;SDS011;2674;49.722;10.892;2023-06-10T01:53:09;10.33;;;7.80;;
5303;SDS011;2674;49.722;10.892;2023-06-10T01:55:35;9.70;;;8.20;;
5303;SDS011;2674;49.722;10.892;2023-06-10T01:58:01;10.33;;;7.93;;
5303;SDS011;2674;49.722;10.892;2023-06-10T02:00:26;10.73;;;8.10;;
5303;SDS011;2674;49.722;10.892;2023-06-10T02:02:52;9.27;;;7.77;;
5303;SDS011;2674;49.722;10.892;2023-06-10T02:05:18;9.20;;;8.30;;
5303;SDS011;2674;49.722;10.892;2023-06-10T02:07:44;8.70;;;7.90;;
5303;SDS011;2674;49.722;10.892;2023-06-10T02:10:10;8.50;;;7.70;;
5303;SDS011;2674;49.722;10.892;2023-06-10T02:12:36;14.43;;;8.57;;
5303;SDS011;2674;49.722;10.892;2023-06-10T02:15:02;9.20;;;8.33;;
5303;SDS011;2674;49.722;10.892;2023-06-10T02:17:28;10.10;;;9.10;;
5303;SDS011;2674;49.722;10.892;2023-06-10T02:19:55;10.20;;;9.20;;
5303;SDS011;2674;49.722;10.892;2023-06-10T02:22:22;9.93;;;9.03;;
5303;SDS011;2674;49.722;10.892;2023-06-10T02:24:48;9.23;;;8.10;;
5303;SDS011;2674;49.722;10.892;2023-06-10T02:27:15;9.60;;;8.60;;
5303;SDS011;2674;49.722;10.892;2023-06-10T02:29:41;11.00;;;9.90;;
5303;SDS011;2674;49.722;10.892;2023-06-10T02:32:08;11.60;;;9.27;;
5303;SDS011;2674;49.722;10.892;2023-06-10T02:34:34;10.93;;;9.47;;
5303;SDS011;2674;49.722;10.892;2023-06-10T02:37:01;10.70;;;9.30;;
5303;SDS011;2674;49.722;10.892;2023-06-10T02:39:28;10.63;;;8.70;;
5303;SDS011;2674;49.722;10.892;2023-06-10T02:41:53;9.60;;;8.70;;
5303;SDS011;2674;49.722;10.892;2023-06-10T02:44:19;9.90;;;8.73;;
5303;SDS011;2674;49.722;10.892;2023-06-10T02:46:45;10.53;;;9.50;;
5303;SDS011;2674;49.722;10.892;2023-06-10T02:49:11;9.70;;;8.80;;
5303;SDS011;2674;49.722;10.892;2023-06-10T02:51:37;9.90;;;8.90;;
5303;SDS011;2674;49.722;10.892;2023-06-10T02:54:04;10.40;;;9.17;;
5303;SDS011;2674;49.722;10.892;2023-06-10T02:56:30;10.07;;;9.10;;
5303;SDS011;2674;49.722;10.892;2023-06-10T02:58:56;13.93;;;10.00;;
5303;SDS011;2674;49.722;10.892;2023-06-10T03:01:23;11.80;;;9.63;;
5303;SDS011;2674;49.722;10.892;2023-06-10T03:03:49;11.87;;;10.57;;
5303;SDS011;2674;49.722;10.892;2023-06-10T03:06:15;11.97;;;10.00;;
5303;SDS011;2674;49.722;10.892;2023-06-10T03:08:44;10.10;;;9.20;;
5303;SDS011;2674;49.722;10.892;2023-06-10T03:11:13;10.60;;;9.30;;
5303;SDS011;2674;49.722;10.892;2023-06-10T03:13:39;13.03;;;10.30;;
5303;SDS011;2674;49.722;10.892;2023-06-10T03:16:05;11.80;;;10.47;;
5303;SDS011;2674;49.722;10.892;2023-06-10T03:18:32;11.30;;;9.83;;
5303;SDS011;2674;49.722;10.892;2023-06-10T03:20:58;13.77;;;10.63;;
5303;SDS011;2674;49.722;10.892;2023-06-10T03:23:25;10.50;;;9.50;;
5303;SDS011;2674;49.722;10.892;2023-06-10T03:25:52;13.07;;;9.97;;
5303;SDS011;2674;49.722;10.892;2023-06-10T03:28:19;10.57;;;9.57;;
5303;SDS011;2674;49.722;10.892;2023-06-10T03:30:46;16.33;;;9.80;;
5303;SDS011;2674;49.722;10.892;2023-06-10T03:33:12;11.23;;;10.13;;
5303;SDS011;2674;49.722;10.892;2023-06-10T03:35:39;11.30;;;10.10;;
5303;SDS011;2674;49.722;10.892;2023-06-10T03:38:05;10.93;;;9.43;;
5303;SDS011;2674;49.722;10.892;2023-06-10T03:40:31;14.50;;;10.37;;
5303;SDS011;2674;49.722;10.892;2023-06-10T03:42:57;11.93;;;10.73;;
5303;SDS011;2674;49.722;10.892;2023-06-10T03:45:23;11.93;;;9.97;;
5303;SDS011;2674;49.722;10.892;2023-06-10T03:47:49;14.17;;;10.03;;
5303;SDS011;2674;49.722;10.892;2023-06-10T03:50:15;11.63;;;10.50;;
5303;SDS011;2674;49.722;10.892;2023-06-10T03:52:41;11.90;;;10.70;;
5303;SDS011;2674;49.722;10.892;2023-06-10T03:55:07;11.43;;;10.00;;
5303;SDS011;2674;49.722;10.892;2023-06-10T03:57:33;12.20;;;10.23;;
5303;SDS011;2674;49.722;10.892;2023-06-10T03:59:59;11.77;;;9.77;;
5303;SDS011;2674;49.722;10.892;2023-06-10T04:02:24;12.87;;;10.40;;
5303;SDS011;2674;49.722;10.892;2023-06-10T04:04:50;13.63;;;10.07;;
5303;SDS011;2674;49.722;10.892;2023-06-10T04:07:16;12.13;;;10.47;;
5303;SDS011;2674;49.722;10.892;2023-06-10T04:09:45;11.83;;;10.70;;
5303;SDS011;2674;49.722;10.892;2023-06-10T04:12:11;11.30;;;9.67;;
5303;SDS011;2674;49.722;10.892;2023-06-10T04:14:37;11.80;;;10.60;;
5303;SDS011;2674;49.722;10.892;2023-06-10T04:17:04;15.43;;;10.37;;
5303;SDS011;2674;49.722;10.892;2023-06-10T04:19:33;12.17;;;10.30;;
5303;SDS011;2674;49.722;10.892;2023-06-10T04:22:00;11.87;;;10.67;;
5303;SDS011;2674;49.722;10.892;2023-06-10T04:24:27;12.27;;;10.70;;
5303;SDS011;2674;49.722;10.892;2023-06-10T04:26:53;11.00;;;9.90;;
5303;SDS011;2674;49.722;10.892;2023-06-10T04:29:19;11.43;;;10.27;;
5303;SDS011;2674;49.722;10.892;2023-06-10T04:31:46;10.87;;;9.77;;
5303;SDS011;2674;49.722;10.892;2023-06-10T04:34:12;11.43;;;10.33;;
5303;SDS011;2674;49.722;10.892;2023-06-10T04:36:38;10.10;;;9.10;;
5303;SDS011;2674;49.722;10.892;2023-06-10T04:39:04;9.77;;;8.77;;
5303;SDS011;2674;49.722;10.892;2023-06-10T04:41:32;11.10;;;9.13;;
5303;SDS011;2674;49.722;10.892;2023-06-10T04:43:58;11.77;;;8.97;;
5303;SDS011;2674;49.722;10.892;2023-06-10T04:46:24;10.13;;;9.13;;
5303;SDS011;2674;49.722;10.892;2023-06-10T04:48:50;11.60;;;10.40;;
5303;SDS011;2674;49.722;10.892;2023-06-10T04:51:16;8.87;;;7.97;;
5303;SDS011;2674;49.722;10.892;2023-06-10T04:53:41;12.10;;;9.63;;
5303;SDS011;2674;49.722;10.892;2023-06-10T04:56:07;9.10;;;8.20;;
5303;SDS011;2674;49.722;10.892;2023-06-10T04:58:34;9.83;;;8.90;;
5303;SDS011;2674;49.722;10.892;2023-06-10T05:00:59;10.33;;;8.90;;
5303;SDS011;2674;49.722;10.892;2023-06-10T05:03:26;11.20;;;9.73;;
5303;SDS011;2674;49.722;10.892;2023-06-10T05:05:52;9.57;;;8.60;;
5303;SDS011;2674;49.722;10.892;2023-06-10T05:08:18;9.77;;;8.67;;
5303;SDS011;2674;49.722;10.892;2023-06-10T05:10:44;10.00;;;9.00;;
5303;SDS011;2674;49.722;10.892;2023-06-10T05:13:09;10.40;;;9.47;;
5303;SDS011;2674;49.722;10.892;2023-06-10T05:15:35;11.43;;;9.37;;
5303;SDS011;2674;49.722;10.892;2023-06-10T05:18:02;9.90;;;8.50;;
5303;SDS011;2674;49.722;10.892;2023-06-10T05:20:27;10.30;;;9.23;;
5303;SDS011;2674;49.722;10.892;2023-06-10T05:22:54;10.30;;;9.20;;
5303;SDS011;2674;49.722;10.892;2023-06-10T05:25:20;10.63;;;9.50;;
5303;SDS011;2674;49.722;10.892;2023-06-10T05:27:46;15.63;;;10.33;;
5303;SDS011;2674;49.722;10.892;2023-06-10T05:30:12;10.40;;;9.40;;
5303;SDS011;2674;49.722;10.892;2023-06-10T05:32:38;11.10;;;10.00;;
5303;SDS011;2674;49.722;10.892;2023-06-10T05:35:04;11.20;;;10.10;;
5303;SDS011;2674;49.722;10.892;2023-06-10T05:37:31;12.97;;;10.57;;
5303;SDS011;2674;49.722;10.892;2023-06-10T05:39:58;12.70;;;11.40;;
5303;SDS011;2674;49.722;10.892;2023-06-10T05:42:24;11.70;;;10.60;;
5303;SDS011;2674;49.722;10.892;2023-06-10T05:44:50;10.97;;;9.90;;
5303;SDS011;2674;49.722;10.892;2023-06-10T05:47:16;11.50;;;10.30;;
5303;SDS011;2674;49.722;10.892;2023-06-10T05:49:42;11.33;;;10.20;;
5303;SDS011;2674;49.722;10.892;2023-06-10T05:52:07;12.37;;;10.90;;
5303;SDS011;2674;49.722;10.892;2023-06-10T05:54:33;14.67;;;11.70;;
5303;SDS011;2674;49.722;10.892;2023-06-10T05:56:59;16.73;;;11.33;;
5303;SDS011;2674;49.722;10.892;2023-06-10T05:59:25;14.97;;;10.07;;
5303;SDS011;2674;49.722;10.892;2023-06-10T06:01:51;13.60;;;11.20;;
5303;SDS011;2674;49.722;10.892;2023-06-10T06:04:16;14.03;;;10.37;;
5303;SDS011;2674;49.722;10.892;2023-06-10T06:06:42;10.23;;;9.13;;
5303;SDS011;2674;49.722;10.892;2023-06-10T06:09:08;11.03;;;10.03;;
5303;SDS011;2674;49.722;10.892;2023-06-10T06:11:34;11.47;;;10.27;;
5303;SDS011;2674;49.722;10.892;2023-06-10T06:14:00;12.30;;;10.70;;
5303;SDS011;2674;49.722;10.892;2023-06-10T06:16:26;12.07;;;9.17;;
5303;SDS011;2674;49.722;10.892;2023-06-10T06:18:52;14.73;;;10.37;;
5303;SDS011;2674;49.722;10.892;2023-06-10T06:21:18;13.43;;;10.83;;
5303;SDS011;2674;49.722;10.892;2023-06-10T06:23:47;11.37;;;9.97;;
5303;SDS011;2674;49.722;10.892;2023-06-10T06:26:13;9.77;;;8.77;;
5303;SDS011;2674;49.722;10.892;2023-06-10T06:28:38;13.70;;;9.80;;
5303;SDS011;2674;49.722;10.892;2023-06-10T06:31:05;12.00;;;8.70;;
5303;SDS011;2674;49.722;10.892;2023-06-10T06:33:31;9.57;;;8.57;;
5303;SDS011;2674;49.722;10.892;2023-06-10T06:35:57;9.13;;;8.20;;
5303;SDS011;2674;49.722;10.892;2023-06-10T06:38:25;8.83;;;7.93;;
5303;SDS011;2674;49.722;10.892;2023-06-10T06:40:51;8.83;;;7.70;;
5303;SDS011;2674;49.722;10.892;2023-06-10T06:43:17;8.00;;;7.33;;
5303;SDS011;2674;49.722;10.892;2023-06-10T06:45:43;10.90;;;7.90;;
5303;SDS011;2674;49.722;10.892;2023-06-10T06:48:11;12.40;;;7.43;;
5303;SDS011;2674;49.722;10.892;2023-06-10T06:50:37;7.93;;;7.23;;
5303;SDS011;2674;49.722;10.892;2023-06-10T06:53:03;10.83;;;7.97;;
5303;SDS011;2674;49.722;10.892;2023-06-10T06:55:29;10.23;;;7.53;;
5303;SDS011;2674;49.722;10.892;2023-06-10T06:57:55;8.83;;;7.63;;
5303;SDS011;2674;49.722;10.892;2023-06-10T07:00:21;10.03;;;7.30;;
5303;SDS011;2674;49.722;10.892;2023-06-10T07:02:47;8.47;;;7.57;;
5303;SDS011;2674;49.722;10.892;2023-06-10T07:05:13;10.67;;;7.30;;
5303;SDS011;2674;49.722;10.892;2023-06-10T07:07:39;8.13;;;7.37;;
5303;SDS011;2674;49.722;10.892;2023-06-10T07:10:05;7.67;;;6.97;;
5303;SDS011;2674;49.722;10.892;2023-06-10T07:12:31;12.73;;;7.90;;
5303;SDS011;2674;49.722;10.892;2023-06-10T07:14:57;8.30;;;7.50;;
5303;SDS011;2674;49.722;10.892;2023-06-10T07:17:23;8.53;;;7.37;;
5303;SDS011;2674;49.722;10.892;2023-06-10T07:19:49;7.43;;;6.53;;
5303;SDS011;2674;49.722;10.892;2023-06-10T07:22:16;7.33;;;6.63;;
5303;SDS011;2674;49.722;10.892;2023-06-10T07:24:42;7.90;;;6.60;;
5303;SDS011;2674;49.722;10.892;2023-06-10T07:27:08;9.63;;;6.77;;
5303;SDS011;2674;49.722;10.892;2023-06-10T07:29:35;10.73;;;7.27;;
5303;SDS011;2674;49.722;10.892;2023-06-10T07:32:02;7.33;;;6.37;;
5303;SDS011;2674;49.722;10.892;2023-06-10T07:34:28;8.17;;;6.00;;
5303;SDS011;2674;49.722;10.892;2023-06-10T07:36:54;9.03;;;6.30;;
5303;SDS011;2674;49.722;10.892;2023-06-10T07:39:20;6.43;;;5.83;;
5303;SDS011;2674;49.722;10.892;2023-06-10T07:41:46;7.27;;;6.13;;
5303;SDS011;2674;49.722;10.892;2023-06-10T07:44:13;6.47;;;5.87;;
5303;SDS011;2674;49.722;10.892;2023-06-10T07:46:39;6.90;;;6.20;;
5303;SDS011;2674;49.722;10.892;2023-06-10T07:49:04;5.80;;;5.27;;
5303;SDS011;2674;49.722;10.892;2023-06-10T07:51:30;6.37;;;5.70;;
5303;SDS011;2674;49.722;10.892;2023-06-10T07:53:56;6.07;;;5.47;;
5303;SDS011;2674;49.722;10.892;2023-06-10T07:56:22;7.80;;;5.40;;
5303;SDS011;2674;49.722;10.892;2023-06-10T07:58:48;6.80;;;5.27;;
5303;SDS011;2674;49.722;10.892;2023-06-10T08:01:13;5.50;;;5.00;;
5303;SDS011;2674;49.722;10.892;2023-06-10T08:03:39;5.47;;;4.97;;
5303;SDS011;2674;49.722;10.892;2023-06-10T08:06:05;4.93;;;4.43;;
5303;SDS011;2674;49.722;10.892;2023-06-10T08:08:31;4.80;;;4.40;;
5303;SDS011;2674;49.722;10.892;2023-06-10T08:10:56;4.33;;;4.03;;
5303;SDS011;2674;49.722;10.892;2023-06-10T08:13:22;5.03;;;4.53;;
5303;SDS011;2674;49.722;10.892;2023-06-10T08:15:48;4.50;;;4.10;;
5303;SDS011;2674;49.722;10.892;2023-06-10T08:18:15;4.57;;;4.27;;
5303;SDS011;2674;49.722;10.892;2023-06-10T08:20:41;4.90;;;4.27;;
5303;SDS011;2674;49.722;10.892;2023-06-10T08:23:07;6.70;;;4.73;;
5303;SDS011;2674;49.722;10.892;2023-06-10T08:25:33;4.53;;;4.10;;
5303;SDS011;2674;49.722;10.892;2023-06-10T08:27:59;4.63;;;4.30;;
5303;SDS011;2674;49.722;10.892;2023-06-10T08:30:24;5.40;;;4.90;;
5303;SDS011;2674;49.722;10.892;2023-06-10T08:32:50;5.30;;;4.90;;
5303;SDS011;2674;49.722;10.892;2023-06-10T08:35:17;9.18;;;4.47;;
5303;SDS011;2674;49.722;10.892;2023-06-10T08:37:42;4.40;;;4.00;;
5303;SDS011;2674;49.722;10.892;2023-06-10T08:40:08;4.20;;;3.87;;
5303;SDS011;2674;49.722;10.892;2023-06-10T08:42:59;4.23;;;3.90;;
5303;SDS011;2674;49.722;10.892;2023-06-10T08:45:30;5.30;;;4.10;;
5303;SDS011;2674;49.722;10.892;2023-06-10T08:47:57;4.30;;;4.00;;
5303;SDS011;2674;49.722;10.892;2023-06-10T08:50:24;4.93;;;4.50;;
5303;SDS011;2674;49.722;10.892;2023-06-10T08:52:53;4.60;;;4.30;;
5303;SDS011;2674;49.722;10.892;2023-06-10T08:55:32;4.43;;;3.80;;
5303;SDS011;2674;49.722;10.892;2023-06-10T08:58:00;5.57;;;4.30;;
5303;SDS011;2674;49.722;10.892;2023-06-10T09:00:27;5.87;;;3.83;;
5303;SDS011;2674;49.722;10.892;2023-06-10T09:02:55;4.63;;;4.33;;
5303;SDS011;2674;49.722;10.892;2023-06-10T09:05:21;4.10;;;3.70;;
5303;SDS011;2674;49.722;10.892;2023-06-10T09:07:48;4.37;;;3.97;;
5303;SDS011;2674;49.722;10.892;2023-06-10T09:10:14;4.80;;;3.70;;
5303;SDS011;2674;49.722;10.892;2023-06-10T09:12:40;5.50;;;4.10;;
5303;SDS011;2674;49.722;10.892;2023-06-10T09:15:06;4.60;;;3.83;;
5303;SDS011;2674;49.722;10.892;2023-06-10T09:17:33;3.77;;;3.43;;
5303;SDS011;2674;49.722;10.892;2023-06-10T09:20:01;3.57;;;3.13;;
5303;SDS011;2674;49.722;10.892;2023-06-10T09:22:27;4.50;;;3.90;;
5303;SDS011;2674;49.722;10.892;2023-06-10T09:25:06;3.60;;;3.30;;
5303;SDS011;2674;49.722;10.892;2023-06-10T09:27:46;5.40;;;4.07;;
5303;SDS011;2674;49.722;10.892;2023-06-10T09:30:28;4.00;;;3.67;;
5303;SDS011;2674;49.722;10.892;2023-06-10T09:32:56;7.23;;;4.53;;
5303;SDS011;2674;49.722;10.892;2023-06-10T09:35:23;4.20;;;3.90;;
5303;SDS011;2674;49.722;10.892;2023-06-10T09:37:51;4.40;;;3.93;;
5303;SDS011;2674;49.722;10.892;2023-06-10T09:40:20;4.37;;;4.07;;
5303;SDS011;2674;49.722;10.892;2023-06-10T09:42:46;4.33;;;3.93;;
5303;SDS011;2674;49.722;10.892;2023-06-10T09:45:21;5.37;;;4.60;;
5303;SDS011;2674;49.722;10.892;2023-06-10T09:47:51;6.00;;;3.93;;
5303;SDS011;2674;49.722;10.892;2023-06-10T09:50:18;3.70;;;3.40;;
5303;SDS011;2674;49.722;10.892;2023-06-10T09:52:44;7.93;;;3.47;;
5303;SDS011;2674;49.722;10.892;2023-06-10T09:55:14;3.80;;;3.50;;
5303;SDS011;2674;49.722;10.892;2023-06-10T09:57:40;3.67;;;3.40;;
5303;SDS011;2674;49.722;10.892;2023-06-10T10:00:10;4.60;;;4.23;;
5303;SDS011;2674;49.722;10.892;2023-06-10T10:02:50;7.93;;;3.83;;
5303;SDS011;2674;49.722;10.892;2023-06-10T10:05:17;7.10;;;3.60;;
5303;SDS011;2674;49.722;10.892;2023-06-10T10:07:44;3.40;;;3.20;;
5303;SDS011;2674;49.722;10.892;2023-06-10T10:10:11;4.07;;;3.77;;
5303;SDS011;2674;49.722;10.892;2023-06-10T10:12:42;3.87;;;3.40;;
5303;SDS011;2674;49.722;10.892;2023-06-10T10:15:08;4.27;;;3.83;;
5303;SDS011;2674;49.722;10.892;2023-06-10T10:20:49;4.17;;;3.77;;
5303;SDS011;2674;49.722;10.892;2023-06-10T10:23:31;3.47;;;3.17;;
5303;SDS011;2674;49.722;10.892;2023-06-10T10:26:04;5.03;;;3.37;;
5303;SDS011;2674;49.722;10.892;2023-06-10T10:28:38;4.03;;;3.33;;
5303;SDS011;2674;49.722;10.892;2023-06-10T10:31:13;5.10;;;4.60;;
5303;SDS011;2674;49.722;10.892;2023-06-10T10:34:27;3.13;;;2.90;;
5303;SDS011;2674;49.722;10.892;2023-06-10T10:36:37;3.77;;;3.40;;
5303;SDS011;2674;49.722;10.892;2023-06-10T10:39:04;21.23;;;3.57;;
5303;SDS011;2674;49.722;10.892;2023-06-10T10:41:30;3.37;;;3.07;;
5303;SDS011;2674;49.722;10.892;2023-06-10T10:43:57;3.33;;;3.03;;
5303;SDS011;2674;49.722;10.892;2023-06-10T10:46:25;4.07;;;3.10;;
5303;SDS011;2674;49.722;10.892;2023-06-10T10:48:54;3.13;;;2.83;;
5303;SDS011;2674;49.722;10.892;2023-06-10T10:51:23;3.37;;;3.07;;
5303;SDS011;2674;49.722;10.892;2023-06-10T10:57:29;3.80;;;3.50;;
5303;SDS011;2674;49.722;10.892;2023-06-10T10:59:54;4.37;;;3.97;;
5303;SDS011;2674;49.722;10.892;2023-06-10T11:02:35;3.53;;;3.33;;
5303;SDS011;2674;49.722;10.892;2023-06-10T11:05:03;3.83;;;3.57;;
5303;SDS011;2674;49.722;10.892;2023-06-10T11:07:31;3.80;;;3.33;;
5303;SDS011;2674;49.722;10.892;2023-06-10T11:10:01;5.17;;;3.57;;
5303;SDS011;2674;49.722;10.892;2023-06-10T11:12:40;3.43;;;3.23;;
5303;SDS011;2674;49.722;10.892;2023-06-10T11:15:07;3.27;;;3.00;;
5303;SDS011;2674;49.722;10.892;2023-06-10T11:17:33;7.40;;;3.77;;
5303;SDS011;2674;49.722;10.892;2023-06-10T11:19:59;2.40;;;2.30;;
5303;SDS011;2674;49.722;10.892;2023-06-10T11:22:25;2.80;;;2.70;;
5303;SDS011;2674;49.722;10.892;2023-06-10T11:24:51;2.70;;;2.50;;
5303;SDS011;2674;49.722;10.892;2023-06-10T11:32:34;3.10;;;2.83;;
5303;SDS011;2674;49.722;10.892;2023-06-10T11:35:04;3.83;;;3.47;;
5303;SDS011;2674;49.722;10.892;2023-06-10T11:37:30;2.80;;;2.60;;
5303;SDS011;2674;49.722;10.892;2023-06-10T11:39:56;2.77;;;2.57;;
5303;SDS011;2674;49.722;10.892;2023-06-10T11:42:22;2.93;;;2.73;;
5303;SDS011;2674;49.722;10.892;2023-06-10T11:44:52;2.93;;;2.73;;
5303;SDS011;2674;49.722;10.892;2023-06-10T11:47:19;3.33;;;3.13;;
5303;SDS011;2674;49.722;10.892;2023-06-10T11:49:45;2.73;;;2.53;;
5303;SDS011;2674;49.722;10.892;2023-06-10T11:52:26;2.80;;;2.60;;
5303;SDS011;2674;49.722;10.892;2023-06-10T11:54:53;3.03;;;2.83;;
5303;SDS011;2674;49.722;10.892;2023-06-10T11:57:20;3.50;;;2.67;;
5303;SDS011;2674;49.722;10.892;2023-06-10T11:59:46;4.63;;;3.17;;
5303;SDS011;2674;49.722;10.892;2023-06-10T12:02:15;3.60;;;3.30;;
5303;SDS011;2674;49.722;10.892;2023-06-10T12:04:42;3.93;;;2.77;;
5303;SDS011;2674;49.722;10.892;2023-06-10T12:07:08;3.10;;;2.90;;
5303;SDS011;2674;49.722;10.892;2023-06-10T12:09:33;3.83;;;3.53;;
5303;SDS011;2674;49.722;10.892;2023-06-10T12:12:00;2.80;;;2.70;;
5303;SDS011;2674;49.722;10.892;2023-06-10T12:17:23;3.97;;;3.27;;
5303;SDS011;2674;49.722;10.892;2023-06-10T12:19:55;2.97;;;2.80;;
5303;SDS011;2674;49.722;10.892;2023-06-10T12:22:21;3.57;;;3.30;;
5303;SDS011;2674;49.722;10.892;2023-06-10T12:24:58;3.20;;;3.00;;
5303;SDS011;2674;49.722;10.892;2023-06-10T12:27:26;3.00;;;2.80;;
5303;SDS011;2674;49.722;10.892;2023-06-10T12:29:55;3.10;;;2.87;;
5303;SDS011;2674;49.722;10.892;2023-06-10T12:32:39;2.73;;;2.53;;
5303;SDS011;2674;49.722;10.892;2023-06-10T12:35:10;2.63;;;2.50;;
5303;SDS011;2674;49.722;10.892;2023-06-10T12:37:38;3.60;;;2.70;;
5303;SDS011;2674;49.722;10.892;2023-06-10T12:40:04;6.73;;;2.87;;
5303;SDS011;2674;49.722;10.892;2023-06-10T12:42:35;2.70;;;2.50;;
5303;SDS011;2674;49.722;10.892;2023-06-10T12:45:02;3.00;;;2.40;;
5303;SDS011;2674;49.722;10.892;2023-06-10T12:47:30;2.30;;;2.20;;
5303;SDS011;2674;49.722;10.892;2023-06-10T12:49:58;2.47;;;2.30;;
5303;SDS011;2674;49.722;10.892;2023-06-10T12:52:25;2.50;;;2.40;;
5303;SDS011;2674;49.722;10.892;2023-06-10T12:54:51;3.97;;;2.53;;
5303;SDS011;2674;49.722;10.892;2023-06-10T12:57:17;5.63;;;3.23;;
5303;SDS011;2674;49.722;10.892;2023-06-10T12:59:43;3.67;;;2.60;;
5303;SDS011;2674;49.722;10.892;2023-06-10T13:02:15;2.97;;;2.87;;
5303;SDS011;2674;49.722;10.892;2023-06-10T13:04:45;2.77;;;2.57;;
5303;SDS011;2674;49.722;10.892;2023-06-10T13:07:11;3.30;;;3.00;;
5303;SDS011;2674;49.722;10.892;2023-06-10T13:09:37;5.67;;;3.00;;
5303;SDS011;2674;49.722;10.892;2023-06-10T13:12:03;3.57;;;3.27;;
5303;SDS011;2674;49.722;10.892;2023-06-10T13:14:30;4.90;;;2.57;;
5303;SDS011;2674;49.722;10.892;2023-06-10T13:16:56;3.13;;;2.90;;
5303;SDS011;2674;49.722;10.892;2023-06-10T13:19:22;2.90;;;2.47;;
5303;SDS011;2674;49.722;10.892;2023-06-10T13:21:48;2.67;;;2.57;;
5303;SDS011;2674;49.722;10.892;2023-06-10T13:24:14;3.30;;;3.07;;
5303;SDS011;2674;49.722;10.892;2023-06-10T13:26:40;2.67;;;2.57;;
5303;SDS011;2674;49.722;10.892;2023-06-10T13:29:06;3.10;;;2.90;;
5303;SDS011;2674;49.722;10.892;2023-06-10T13:31:33;2.80;;;2.60;;
5303;SDS011;2674;49.722;10.892;2023-06-10T13:33:59;2.63;;;2.53;;
5303;SDS011;2674;49.722;10.892;2023-06-10T13:36:25;3.47;;;2.80;;
5303;SDS011;2674;49.722;10.892;2023-06-10T13:38:51;5.30;;;4.10;;
5303;SDS011;2674;49.722;10.892;2023-06-10T13:41:16;3.13;;;2.70;;
5303;SDS011;2674;49.722;10.892;2023-06-10T13:43:42;2.60;;;2.50;;
5303;SDS011;2674;49.722;10.892;2023-06-10T13:46:08;3.27;;;2.97;;
5303;SDS011;2674;49.722;10.892;2023-06-10T13:48:34;3.83;;;3.00;;
5303;SDS011;2674;49.722;10.892;2023-06-10T13:51:00;3.37;;;2.63;;
5303;SDS011;2674;49.722;10.892;2023-06-10T13:53:26;6.10;;;2.00;;
5303;SDS011;2674;49.722;10.892;2023-06-10T13:55:52;2.70;;;2.50;;
5303;SDS011;2674;49.722;10.892;2023-06-10T13:58:17;5.70;;;2.30;;
5303;SDS011;2674;49.722;10.892;2023-06-10T14:00:43;2.50;;;2.10;;
5303;SDS011;2674;49.722;10.892;2023-06-10T14:03:09;2.90;;;2.70;;
5303;SDS011;2674;49.722;10.892;2023-06-10T14:05:35;2.27;;;2.17;;
5303;SDS011;2674;49.722;10.892;2023-06-10T14:08:01;2.53;;;2.43;;
5303;SDS011;2674;49.722;10.892;2023-06-10T14:10:26;2.60;;;2.40;;
5303;SDS011;2674;49.722;10.892;2023-06-10T14:12:52;2.40;;;2.30;;
5303;SDS011;2674;49.722;10.892;2023-06-10T14:15:18;2.77;;;2.20;;
5303;SDS011;2674;49.722;10.892;2023-06-10T14:17:44;2.30;;;2.20;;
5303;SDS011;2674;49.722;10.892;2023-06-10T14:20:10;2.97;;;2.77;;
5303;SDS011;2674;49.722;10.892;2023-06-10T14:22:36;2.93;;;2.73;;
5303;SDS011;2674;49.722;10.892;2023-06-10T14:25:02;2.93;;;2.63;;
5303;SDS011;2674;49.722;10.892;2023-06-10T14:27:29;2.80;;;2.60;;
5303;SDS011;2674;49.722;10.892;2023-06-10T14:29:55;2.83;;;2.63;;
5303;SDS011;2674;49.722;10.892;2023-06-10T14:32:21;2.87;;;2.67;;
5303;SDS011;2674;49.722;10.892;2023-06-10T14:34:47;3.23;;;3.03;;
5303;SDS011;2674;49.722;10.892;2023-06-10T14:37:12;3.07;;;2.67;;
5303;SDS011;2674;49.722;10.892;2023-06-10T14:39:38;3.20;;;3.00;;
5303;SDS011;2674;49.722;10.892;2023-06-10T14:42:04;2.90;;;2.70;;
5303;SDS011;2674;49.722;10.892;2023-06-10T14:44:31;3.63;;;3.37;;
5303;SDS011;2674;49.722;10.892;2023-06-10T14:46:57;4.77;;;4.40;;
5303;SDS011;2674;49.722;10.892;2023-06-10T14:49:23;5.53;;;5.13;;
5303;SDS011;2674;49.722;10.892;2023-06-10T14:51:49;5.57;;;5.17;;
5303;SDS011;2674;49.722;10.892;2023-06-10T14:54:15;5.37;;;4.87;;
5303;SDS011;2674;49.722;10.892;2023-06-10T14:56:41;6.97;;;5.53;;
5303;SDS011;2674;49.722;10.892;2023-06-10T14:59:07;7.13;;;5.67;;
5303;SDS011;2674;49.722;10.892;2023-06-10T15:01:33;6.90;;;5.23;;
5303;SDS011;2674;49.722;10.892;2023-06-10T15:03:59;6.90;;;6.20;;
5303;SDS011;2674;49.722;10.892;2023-06-10T15:06:24;6.53;;;5.30;;
5303;SDS011;2674;49.722;10.892;2023-06-10T15:08:50;6.17;;;5.37;;
5303;SDS011;2674;49.722;10.892;2023-06-10T15:11:16;8.07;;;6.33;;
5303;SDS011;2674;49.722;10.892;2023-06-10T15:13:42;8.50;;;5.97;;
5303;SDS011;2674;49.722;10.892;2023-06-10T15:16:08;8.13;;;7.33;;